sensor_id;sensor_type;location;lat;lon;timestamp;pressure;altitude;pressure_sealevel;temperature;humidity
27980;BME280;15315;50.836;4.430;2023-02-08T00:03:27;103261.41;;;4.66;68.25
27980;BME280;15315;50.836;4.430;2023-02-08T00:13:28;103261.13;;;5.11;66.11
27980;BME280;15315;50.836;4.430;2023-02-08T00:23:28;103255.72;;;5.19;65.79
27980;BME280;15315;50.836;4.430;2023-02-08T00:33:28;103252.19;;;5.12;65.14
27980;BME280;15315;50.836;4.430;2023-02-08T00:43:29;103246.72;;;5.29;63.98
27980;BME280;15315;50.836;4.430;2023-02-08T00:53:30;103242.53;;;4.90;65.17
27980;BME280;15315;50.836;4.430;2023-02-08T01:03:35;103261.31;;;4.81;65.69
27980;BME280;15315;50.836;4.430;2023-02-08T01:13:37;103269.56;;;4.34;68.51
27980;BME280;15315;50.836;4.430;2023-02-08T01:23:38;103257.09;;;4.25;67.59
27980;BME280;15315;50.836;4.430;2023-02-08T01:33:39;103270.44;;;4.38;67.42
27980;BME280;15315;50.836;4.430;2023-02-08T01:54:36;103275.72;;;4.56;66.82
27980;BME280;15315;50.836;4.430;2023-02-08T02:04:38;103265.97;;;4.43;67.04
27980;BME280;15315;50.836;4.430;2023-02-08T02:14:39;103273.16;;;4.09;68.11
27980;BME280;15315;50.836;4.430;2023-02-08T02:35:47;103250.09;;;3.70;70.36
27980;BME280;15315;50.836;4.430;2023-02-08T02:46:32;103237.59;;;3.98;69.06
27980;BME280;15315;50.836;4.430;2023-02-08T02:56:43;103239.22;;;4.50;66.86
27980;BME280;15315;50.836;4.430;2023-02-08T03:27:30;103224.28;;;3.90;67.74
27980;BME280;15315;50.836;4.430;2023-02-08T03:37:41;103240.34;;;3.01;71.91
27980;BME280;15315;50.836;4.430;2023-02-08T03:47:44;103246.47;;;4.03;67.96
27980;BME280;15315;50.836;4.430;2023-02-08T03:57:52;103239.34;;;4.08;67.60
27980;BME280;15315;50.836;4.430;2023-02-08T04:07:54;103237.59;;;3.98;66.42
27980;BME280;15315;50.836;4.430;2023-02-08T04:17:54;103237.63;;;3.93;66.47
27980;BME280;15315;50.836;4.430;2023-02-08T04:27:54;103230.56;;;3.47;68.70
27980;BME280;15315;50.836;4.430;2023-02-08T04:37:55;103238.59;;;3.42;68.62
27980;BME280;15315;50.836;4.430;2023-02-08T04:47:55;103227.03;;;3.00;70.84
27980;BME280;15315;50.836;4.430;2023-02-08T04:57:56;103225.13;;;2.41;74.07
27980;BME280;15315;50.836;4.430;2023-02-08T05:07:57;103219.03;;;3.12;71.55
27980;BME280;15315;50.836;4.430;2023-02-08T05:17:58;103211.94;;;3.24;71.17
27980;BME280;15315;50.836;4.430;2023-02-08T05:27:59;103216.34;;;3.58;68.59
27980;BME280;15315;50.836;4.430;2023-02-08T05:37:59;103223.47;;;3.61;68.63
27980;BME280;15315;50.836;4.430;2023-02-08T05:48:00;103222.53;;;3.76;67.55
27980;BME280;15315;50.836;4.430;2023-02-08T05:58:00;103222.53;;;3.67;66.84
27980;BME280;15315;50.836;4.430;2023-02-08T06:08:00;103220.81;;;3.47;66.92
27980;BME280;15315;50.836;4.430;2023-02-08T06:18:01;103228.81;;;3.20;68.45
27980;BME280;15315;50.836;4.430;2023-02-08T06:28:02;103226.97;;;2.80;69.69
27980;BME280;15315;50.836;4.430;2023-02-08T06:38:02;103215.44;;;2.76;70.29
27980;BME280;15315;50.836;4.430;2023-02-08T06:48:03;103214.56;;;2.79;70.90
27980;BME280;15315;50.836;4.430;2023-02-08T06:58:03;103225.25;;;3.18;69.98
27980;BME280;15315;50.836;4.430;2023-02-08T07:08:04;103236.78;;;3.19;69.87
27980;BME280;15315;50.836;4.430;2023-02-08T07:18:05;103226.16;;;3.38;69.84
27980;BME280;15315;50.836;4.430;2023-02-08T07:28:05;103217.22;;;3.73;69.09
27980;BME280;15315;50.836;4.430;2023-02-08T07:38:06;103218.13;;;3.66;69.66
27980;BME280;15315;50.836;4.430;2023-02-08T07:48:06;103212.72;;;3.91;68.41
27980;BME280;15315;50.836;4.430;2023-02-08T07:58:07;103203.69;;;4.24;67.74
27980;BME280;15315;50.836;4.430;2023-02-08T08:08:08;103219.78;;;4.00;68.63
27980;BME280;15315;50.836;4.430;2023-02-08T08:18:09;103207.28;;;4.21;69.55
27980;BME280;15315;50.836;4.430;2023-02-08T08:28:09;103215.16;;;4.58;68.51
27980;BME280;15315;50.836;4.430;2023-02-08T08:38:10;103204.31;;;4.80;69.00
27980;BME280;15315;50.836;4.430;2023-02-08T08:48:10;103199.66;;;5.05;68.62
27980;BME280;15315;50.836;4.430;2023-02-08T08:58:11;103181.94;;;4.97;68.37
27980;BME280;15315;50.836;4.430;2023-02-08T09:08:19;103180.72;;;5.34;63.16
27980;BME280;15315;50.836;4.430;2023-02-08T09:18:19;103199.75;;;5.90;59.32
27980;BME280;15315;50.836;4.430;2023-02-08T09:28:20;103196.50;;;6.39;58.28
27980;BME280;15315;50.836;4.430;2023-02-08T09:38:20;103182.88;;;7.12;54.56
27980;BME280;15315;50.836;4.430;2023-02-08T09:48:41;103177.25;;;7.77;55.07
27980;BME280;15315;50.836;4.430;2023-02-08T09:58:44;103179.47;;;8.00;51.82
27980;BME280;15315;50.836;4.430;2023-02-08T10:08:48;103174.75;;;8.52;50.54
27980;BME280;15315;50.836;4.430;2023-02-08T10:19:41;103177.50;;;8.49;45.94
27980;BME280;15315;50.836;4.430;2023-02-08T10:39:56;103176.16;;;9.42;43.54
27980;BME280;15315;50.836;4.430;2023-02-08T10:50:14;103176.38;;;8.98;36.62
27980;BME280;15315;50.836;4.430;2023-02-08T11:00:25;103178.72;;;9.13;33.81
27980;BME280;15315;50.836;4.430;2023-02-08T11:10:26;103174.09;;;9.52;33.04
27980;BME280;15315;50.836;4.430;2023-02-08T11:20:32;103154.25;;;9.56;32.78
27980;BME280;15315;50.836;4.430;2023-02-08T11:30:35;103144.44;;;9.53;31.85
27980;BME280;15315;50.836;4.430;2023-02-08T11:40:42;103135.94;;;9.68;31.76
27980;BME280;15315;50.836;4.430;2023-02-08T11:50:43;103118.72;;;10.05;32.29
27980;BME280;15315;50.836;4.430;2023-02-08T12:01:00;103109.81;;;10.60;31.40
27980;BME280;15315;50.836;4.430;2023-02-08T12:21:23;103077.91;;;11.25;30.77
27980;BME280;15315;50.836;4.430;2023-02-08T12:41:59;103049.81;;;10.52;29.92
27980;BME280;15315;50.836;4.430;2023-02-08T12:52:37;103029.19;;;11.28;31.14
27980;BME280;15315;50.836;4.430;2023-02-08T13:02:41;103007.03;;;10.67;30.73
27980;BME280;15315;50.836;4.430;2023-02-08T13:12:48;102988.75;;;11.01;31.41
27980;BME280;15315;50.836;4.430;2023-02-08T13:22:55;102971.16;;;10.65;32.44
27980;BME280;15315;50.836;4.430;2023-02-08T13:33:27;102950.44;;;10.90;32.20
27980;BME280;15315;50.836;4.430;2023-02-08T13:43:36;102932.88;;;11.03;33.11
27980;BME280;15315;50.836;4.430;2023-02-08T14:03:37;102910.63;;;10.72;33.70
27980;BME280;15315;50.836;4.430;2023-02-08T14:13:52;102902.91;;;11.11;34.11
27980;BME280;15315;50.836;4.430;2023-02-08T14:23:59;102908.78;;;10.97;33.95
27980;BME280;15315;50.836;4.430;2023-02-08T14:34:01;102899.19;;;10.90;34.98
27980;BME280;15315;50.836;4.430;2023-02-08T14:55:05;102887.81;;;10.05;36.24
27980;BME280;15315;50.836;4.430;2023-02-08T15:05:19;102895.69;;;10.11;36.64
27980;BME280;15315;50.836;4.430;2023-02-08T15:25:27;102881.22;;;10.14;36.52
27980;BME280;15315;50.836;4.430;2023-02-08T15:35:32;102879.44;;;10.40;36.81
27980;BME280;15315;50.836;4.430;2023-02-08T15:45:33;102872.34;;;10.38;37.20
27980;BME280;15315;50.836;4.430;2023-02-08T15:55:49;102860.34;;;10.71;36.34
27980;BME280;15315;50.836;4.430;2023-02-08T16:05:56;102842.03;;;10.04;36.10
27980;BME280;15315;50.836;4.430;2023-02-08T16:16:18;102823.88;;;10.10;36.23
27980;BME280;15315;50.836;4.430;2023-02-08T16:26:31;102815.50;;;10.18;35.72
27980;BME280;15315;50.836;4.430;2023-02-08T16:36:40;102801.78;;;10.24;35.87
27980;BME280;15315;50.836;4.430;2023-02-08T16:46:50;102799.53;;;10.38;36.63
27980;BME280;15315;50.836;4.430;2023-02-08T16:56:52;102797.50;;;10.18;36.94
27980;BME280;15315;50.836;4.430;2023-02-08T17:06:59;102800.19;;;10.18;37.11
27980;BME280;15315;50.836;4.430;2023-02-08T17:16:59;102799.47;;;10.13;37.38
27980;BME280;15315;50.836;4.430;2023-02-08T17:27:01;102797.00;;;10.07;37.97
27980;BME280;15315;50.836;4.430;2023-02-08T17:37:01;102795.84;;;9.90;39.14
27980;BME280;15315;50.836;4.430;2023-02-08T17:47:02;102770.53;;;9.67;39.22
27980;BME280;15315;50.836;4.430;2023-02-08T17:57:04;102771.84;;;9.56;39.96
27980;BME280;15315;50.836;4.430;2023-02-08T18:07:05;102755.72;;;9.28;40.16
27980;BME280;15315;50.836;4.430;2023-02-08T18:17:05;102750.44;;;8.96;41.77
27980;BME280;15315;50.836;4.430;2023-02-08T18:27:13;102749.78;;;8.88;41.96
27980;BME280;15315;50.836;4.430;2023-02-08T18:37:14;102732.00;;;8.84;42.38
27980;BME280;15315;50.836;4.430;2023-02-08T18:47:14;102734.47;;;8.62;42.78
27980;BME280;15315;50.836;4.430;2023-02-08T18:57:15;102730.63;;;8.09;43.78
27980;BME280;15315;50.836;4.430;2023-02-08T19:07:15;102731.34;;;8.16;43.99
27980;BME280;15315;50.836;4.430;2023-02-08T19:17:17;102742.84;;;7.88;44.99
27980;BME280;15315;50.836;4.430;2023-02-08T19:27:17;102730.00;;;7.99;44.54
27980;BME280;15315;50.836;4.430;2023-02-08T19:37:18;102743.47;;;7.63;45.96
27980;BME280;15315;50.836;4.430;2023-02-08T19:47:18;102739.84;;;7.30;46.89
27980;BME280;15315;50.836;4.430;2023-02-08T19:57:18;102741.28;;;7.08;47.84
27980;BME280;15315;50.836;4.430;2023-02-08T20:07:19;102746.34;;;7.21;48.07
27980;BME280;15315;50.836;4.430;2023-02-08T20:17:19;102754.03;;;6.98;48.17
27980;BME280;15315;50.836;4.430;2023-02-08T20:27:20;102747.38;;;7.16;47.55
27980;BME280;15315;50.836;4.430;2023-02-08T20:37:21;102746.84;;;7.00;47.84
27980;BME280;15315;50.836;4.430;2023-02-08T20:47:22;102732.16;;;6.78;48.42
27980;BME280;15315;50.836;4.430;2023-02-08T20:57:22;102735.78;;;6.76;47.82
27980;BME280;15315;50.836;4.430;2023-02-08T21:07:23;102740.44;;;6.67;48.32
27980;BME280;15315;50.836;4.430;2023-02-08T21:17:23;102731.69;;;6.58;48.35
27980;BME280;15315;50.836;4.430;2023-02-08T21:27:23;102742.94;;;6.75;48.65
27980;BME280;15315;50.836;4.430;2023-02-08T21:37:24;102728.75;;;6.70;48.72
27980;BME280;15315;50.836;4.430;2023-02-08T21:47:24;102722.75;;;6.59;48.85
27980;BME280;15315;50.836;4.430;2023-02-08T21:57:29;102712.16;;;6.53;49.12
27980;BME280;15315;50.836;4.430;2023-02-08T22:07:42;102713.19;;;6.47;49.27
27980;BME280;15315;50.836;4.430;2023-02-08T22:17:43;102696.34;;;6.41;49.30
27980;BME280;15315;50.836;4.430;2023-02-08T22:27:44;102703.22;;;6.09;49.60
27980;BME280;15315;50.836;4.430;2023-02-08T22:37:44;102689.25;;;6.38;49.61
27980;BME280;15315;50.836;4.430;2023-02-08T22:47:45;102683.22;;;5.83;50.88
27980;BME280;15315;50.836;4.430;2023-02-08T22:57:45;102681.50;;;5.80;50.93
27980;BME280;15315;50.836;4.430;2023-02-08T23:07:45;102690.81;;;5.58;52.18
27980;BME280;15315;50.836;4.430;2023-02-08T23:17:46;102691.00;;;5.49;52.29
27980;BME280;15315;50.836;4.430;2023-02-08T23:27:46;102670.94;;;5.73;51.63
27980;BME280;15315;50.836;4.430;2023-02-08T23:37:50;102665.75;;;5.64;50.85
27980;BME280;15315;50.836;4.430;2023-02-08T23:47:51;102686.13;;;5.20;50.50
27980;BME280;15315;50.836;4.430;2023-02-08T23:57:51;102683.78;;;5.54;49.50
